sensor_id;sensor_type;location;lat;lon;timestamp;P1;durP1;ratioP1;P2;durP2;ratioP2
635;SDS011;302;50.206;8.196;2023-08-06T00:02:13;5.22;;;4.82;;
635;SDS011;302;50.206;8.196;2023-08-06T00:04:38;5.17;;;4.67;;
635;SDS011;302;50.206;8.196;2023-08-06T00:07:03;5.30;;;4.90;;
635;SDS011;302;50.206;8.196;2023-08-06T00:09:28;4.80;;;4.40;;
635;SDS011;302;50.206;8.196;2023-08-06T00:11:53;5.50;;;5.03;;
635;SDS011;302;50.206;8.196;2023-08-06T00:14:19;4.57;;;4.17;;
635;SDS011;302;50.206;8.196;2023-08-06T00:16:44;5.15;;;4.75;;
635;SDS011;302;50.206;8.196;2023-08-06T00:19:09;5.30;;;4.90;;
635;SDS011;302;50.206;8.196;2023-08-06T00:21:34;5.63;;;5.22;;
635;SDS011;302;50.206;8.196;2023-08-06T00:23:59;5.15;;;4.68;;
635;SDS011;302;50.206;8.196;2023-08-06T00:26:25;4.67;;;4.30;;
635;SDS011;302;50.206;8.196;2023-08-06T00:28:50;4.50;;;4.20;;
635;SDS011;302;50.206;8.196;2023-08-06T00:31:15;4.70;;;4.35;;
635;SDS011;302;50.206;8.196;2023-08-06T00:33:40;4.57;;;4.17;;
635;SDS011;302;50.206;8.196;2023-08-06T00:36:05;5.27;;;4.87;;
635;SDS011;302;50.206;8.196;2023-08-06T00:38:30;4.78;;;4.38;;
635;SDS011;302;50.206;8.196;2023-08-06T00:40:55;4.95;;;4.55;;
635;SDS011;302;50.206;8.196;2023-08-06T00:43:21;4.75;;;4.35;;
635;SDS011;302;50.206;8.196;2023-08-06T00:45:46;3.42;;;3.17;;
635;SDS011;302;50.206;8.196;2023-08-06T00:48:11;5.37;;;4.97;;
635;SDS011;302;50.206;8.196;2023-08-06T00:50:36;4.63;;;4.30;;
635;SDS011;302;50.206;8.196;2023-08-06T00:53:01;4.40;;;4.10;;
635;SDS011;302;50.206;8.196;2023-08-06T00:55:27;4.50;;;4.10;;
635;SDS011;302;50.206;8.196;2023-08-06T00:57:52;5.23;;;4.73;;
635;SDS011;302;50.206;8.196;2023-08-06T01:00:21;3.97;;;3.67;;
635;SDS011;302;50.206;8.196;2023-08-06T01:02:48;4.10;;;3.50;;
635;SDS011;302;50.206;8.196;2023-08-06T01:05:13;4.45;;;4.05;;
635;SDS011;302;50.206;8.196;2023-08-06T01:07:51;3.83;;;3.53;;
635;SDS011;302;50.206;8.196;2023-08-06T01:12:45;6.60;;;4.03;;
635;SDS011;302;50.206;8.196;2023-08-06T01:15:22;4.15;;;3.85;;
635;SDS011;302;50.206;8.196;2023-08-06T01:17:48;4.20;;;3.80;;
635;SDS011;302;50.206;8.196;2023-08-06T01:20:13;3.90;;;3.60;;
635;SDS011;302;50.206;8.196;2023-08-06T01:22:38;3.97;;;3.63;;
635;SDS011;302;50.206;8.196;2023-08-06T01:25:04;5.03;;;4.68;;
635;SDS011;302;50.206;8.196;2023-08-06T01:27:45;4.10;;;3.73;;
635;SDS011;302;50.206;8.196;2023-08-06T01:30:27;3.88;;;3.58;;
635;SDS011;302;50.206;8.196;2023-08-06T01:32:55;4.20;;;3.85;;
635;SDS011;302;50.206;8.196;2023-08-06T01:35:23;5.40;;;3.75;;
635;SDS011;302;50.206;8.196;2023-08-06T01:37:49;3.45;;;3.20;;
635;SDS011;302;50.206;8.196;2023-08-06T01:40:15;4.50;;;4.10;;
635;SDS011;302;50.206;8.196;2023-08-06T01:42:40;3.50;;;3.30;;
635;SDS011;302;50.206;8.196;2023-08-06T01:45:08;5.80;;;4.10;;
635;SDS011;302;50.206;8.196;2023-08-06T01:47:34;3.40;;;3.20;;
635;SDS011;302;50.206;8.196;2023-08-06T01:49:59;4.47;;;4.03;;
635;SDS011;302;50.206;8.196;2023-08-06T01:52:25;3.78;;;3.55;;
635;SDS011;302;50.206;8.196;2023-08-06T01:54:50;4.45;;;4.05;;
635;SDS011;302;50.206;8.196;2023-08-06T01:57:15;3.90;;;3.50;;
635;SDS011;302;50.206;8.196;2023-08-06T01:59:40;4.80;;;4.10;;
635;SDS011;302;50.206;8.196;2023-08-06T02:02:06;4.43;;;4.03;;
635;SDS011;302;50.206;8.196;2023-08-06T02:04:31;4.85;;;4.45;;
635;SDS011;302;50.206;8.196;2023-08-06T02:06:56;4.40;;;4.00;;
635;SDS011;302;50.206;8.196;2023-08-06T02:09:21;4.47;;;4.07;;
635;SDS011;302;50.206;8.196;2023-08-06T02:11:46;4.13;;;3.80;;
635;SDS011;302;50.206;8.196;2023-08-06T02:14:11;4.37;;;3.97;;
635;SDS011;302;50.206;8.196;2023-08-06T02:16:37;4.60;;;4.20;;
635;SDS011;302;50.206;8.196;2023-08-06T02:19:02;3.97;;;3.60;;
635;SDS011;302;50.206;8.196;2023-08-06T02:21:27;4.10;;;3.70;;
635;SDS011;302;50.206;8.196;2023-08-06T02:23:52;3.97;;;3.67;;
635;SDS011;302;50.206;8.196;2023-08-06T02:26:17;4.40;;;4.00;;
635;SDS011;302;50.206;8.196;2023-08-06T02:28:42;4.10;;;3.70;;
635;SDS011;302;50.206;8.196;2023-08-06T02:31:08;3.60;;;3.30;;
635;SDS011;302;50.206;8.196;2023-08-06T02:33:33;3.50;;;3.20;;
635;SDS011;302;50.206;8.196;2023-08-06T02:35:58;4.80;;;4.40;;
635;SDS011;302;50.206;8.196;2023-08-06T02:38:24;4.63;;;4.03;;
635;SDS011;302;50.206;8.196;2023-08-06T02:40:49;4.25;;;3.92;;
635;SDS011;302;50.206;8.196;2023-08-06T02:43:14;4.27;;;3.87;;
635;SDS011;302;50.206;8.196;2023-08-06T02:45:39;4.05;;;3.65;;
635;SDS011;302;50.206;8.196;2023-08-06T02:48:04;4.00;;;3.70;;
635;SDS011;302;50.206;8.196;2023-08-06T02:50:30;4.43;;;3.70;;
635;SDS011;302;50.206;8.196;2023-08-06T02:52:55;4.13;;;3.73;;
635;SDS011;302;50.206;8.196;2023-08-06T02:55:20;7.10;;;4.00;;
635;SDS011;302;50.206;8.196;2023-08-06T02:57:45;4.17;;;3.50;;
635;SDS011;302;50.206;8.196;2023-08-06T03:00:10;4.83;;;4.30;;
635;SDS011;302;50.206;8.196;2023-08-06T03:02:36;4.80;;;4.40;;
635;SDS011;302;50.206;8.196;2023-08-06T03:05:01;4.30;;;3.77;;
635;SDS011;302;50.206;8.196;2023-08-06T03:07:27;4.20;;;3.80;;
635;SDS011;302;50.206;8.196;2023-08-06T03:09:52;4.43;;;4.03;;
635;SDS011;302;50.206;8.196;2023-08-06T03:12:18;4.03;;;3.73;;
635;SDS011;302;50.206;8.196;2023-08-06T03:14:43;4.15;;;3.85;;
635;SDS011;302;50.206;8.196;2023-08-06T03:17:08;5.18;;;4.25;;
635;SDS011;302;50.206;8.196;2023-08-06T03:19:33;4.40;;;4.00;;
635;SDS011;302;50.206;8.196;2023-08-06T03:21:58;4.30;;;4.00;;
635;SDS011;302;50.206;8.196;2023-08-06T03:24:23;4.45;;;4.15;;
635;SDS011;302;50.206;8.196;2023-08-06T03:26:48;4.78;;;4.38;;
635;SDS011;302;50.206;8.196;2023-08-06T03:29:13;4.38;;;4.07;;
635;SDS011;302;50.206;8.196;2023-08-06T03:31:39;4.37;;;4.07;;
635;SDS011;302;50.206;8.196;2023-08-06T03:34:04;3.90;;;3.60;;
635;SDS011;302;50.206;8.196;2023-08-06T03:36:29;4.97;;;4.57;;
635;SDS011;302;50.206;8.196;2023-08-06T03:38:54;4.07;;;3.77;;
635;SDS011;302;50.206;8.196;2023-08-06T03:41:19;4.40;;;4.10;;
635;SDS011;302;50.206;8.196;2023-08-06T03:43:44;4.13;;;3.75;;
635;SDS011;302;50.206;8.196;2023-08-06T03:46:10;4.93;;;4.15;;
635;SDS011;302;50.206;8.196;2023-08-06T03:48:35;4.70;;;4.30;;
635;SDS011;302;50.206;8.196;2023-08-06T03:51:00;5.03;;;4.63;;
635;SDS011;302;50.206;8.196;2023-08-06T03:53:27;4.60;;;4.20;;
635;SDS011;302;50.206;8.196;2023-08-06T03:55:52;4.47;;;4.07;;
635;SDS011;302;50.206;8.196;2023-08-06T03:58:17;6.20;;;4.00;;
635;SDS011;302;50.206;8.196;2023-08-06T04:00:42;4.60;;;4.10;;
635;SDS011;302;50.206;8.196;2023-08-06T04:03:07;4.55;;;4.18;;
635;SDS011;302;50.206;8.196;2023-08-06T04:05:32;4.57;;;4.20;;
635;SDS011;302;50.206;8.196;2023-08-06T04:07:58;4.20;;;3.90;;
635;SDS011;302;50.206;8.196;2023-08-06T04:10:24;4.90;;;4.50;;
635;SDS011;302;50.206;8.196;2023-08-06T04:12:49;4.80;;;4.32;;
635;SDS011;302;50.206;8.196;2023-08-06T04:15:14;6.40;;;4.60;;
635;SDS011;302;50.206;8.196;2023-08-06T04:17:40;3.75;;;3.45;;
635;SDS011;302;50.206;8.196;2023-08-06T04:20:05;4.43;;;4.03;;
635;SDS011;302;50.206;8.196;2023-08-06T04:22:30;4.60;;;4.20;;
635;SDS011;302;50.206;8.196;2023-08-06T04:24:56;6.00;;;4.25;;
635;SDS011;302;50.206;8.196;2023-08-06T04:27:21;4.03;;;3.72;;
635;SDS011;302;50.206;8.196;2023-08-06T04:29:46;4.40;;;4.10;;
635;SDS011;302;50.206;8.196;2023-08-06T04:32:11;3.63;;;3.38;;
635;SDS011;302;50.206;8.196;2023-08-06T04:34:37;4.30;;;4.00;;
635;SDS011;302;50.206;8.196;2023-08-06T04:37:02;4.50;;;4.10;;
635;SDS011;302;50.206;8.196;2023-08-06T04:39:28;3.83;;;3.53;;
635;SDS011;302;50.206;8.196;2023-08-06T04:41:53;6.07;;;4.73;;
635;SDS011;302;50.206;8.196;2023-08-06T04:44:18;3.63;;;3.33;;
635;SDS011;302;50.206;8.196;2023-08-06T04:46:43;3.53;;;3.22;;
635;SDS011;302;50.206;8.196;2023-08-06T04:49:08;4.10;;;3.80;;
635;SDS011;302;50.206;8.196;2023-08-06T04:51:34;4.73;;;3.50;;
635;SDS011;302;50.206;8.196;2023-08-06T04:53:59;3.00;;;2.80;;
635;SDS011;302;50.206;8.196;2023-08-06T04:56:24;3.50;;;3.20;;
635;SDS011;302;50.206;8.196;2023-08-06T04:58:49;3.85;;;2.55;;
635;SDS011;302;50.206;8.196;2023-08-06T05:01:14;2.87;;;2.57;;
635;SDS011;302;50.206;8.196;2023-08-06T05:03:40;2.20;;;2.10;;
635;SDS011;302;50.206;8.196;2023-08-06T05:06:05;2.30;;;1.80;;
635;SDS011;302;50.206;8.196;2023-08-06T05:08:30;2.08;;;1.95;;
635;SDS011;302;50.206;8.196;2023-08-06T05:10:55;2.40;;;2.00;;
635;SDS011;302;50.206;8.196;2023-08-06T05:13:20;3.87;;;1.63;;
635;SDS011;302;50.206;8.196;2023-08-06T05:15:45;1.73;;;1.63;;
635;SDS011;302;50.206;8.196;2023-08-06T05:18:11;1.83;;;1.73;;
635;SDS011;302;50.206;8.196;2023-08-06T05:20:37;1.77;;;1.63;;
635;SDS011;302;50.206;8.196;2023-08-06T05:23:02;1.70;;;1.50;;
635;SDS011;302;50.206;8.196;2023-08-06T05:25:27;1.63;;;1.53;;
635;SDS011;302;50.206;8.196;2023-08-06T05:27:53;1.97;;;1.77;;
635;SDS011;302;50.206;8.196;2023-08-06T05:30:18;1.60;;;1.50;;
635;SDS011;302;50.206;8.196;2023-08-06T05:32:43;1.58;;;1.48;;
635;SDS011;302;50.206;8.196;2023-08-06T05:35:08;1.70;;;1.60;;
635;SDS011;302;50.206;8.196;2023-08-06T05:37:33;1.60;;;1.50;;
635;SDS011;302;50.206;8.196;2023-08-06T05:39:59;1.70;;;1.60;;
635;SDS011;302;50.206;8.196;2023-08-06T05:42:24;1.87;;;1.50;;
635;SDS011;302;50.206;8.196;2023-08-06T05:44:49;1.73;;;1.63;;
635;SDS011;302;50.206;8.196;2023-08-06T05:47:14;1.27;;;1.17;;
635;SDS011;302;50.206;8.196;2023-08-06T05:49:39;1.45;;;1.35;;
635;SDS011;302;50.206;8.196;2023-08-06T05:52:04;1.38;;;1.27;;
635;SDS011;302;50.206;8.196;2023-08-06T05:54:31;1.23;;;1.13;;
635;SDS011;302;50.206;8.196;2023-08-06T05:56:56;1.30;;;1.20;;
635;SDS011;302;50.206;8.196;2023-08-06T05:59:21;1.17;;;1.07;;
635;SDS011;302;50.206;8.196;2023-08-06T06:01:47;1.10;;;1.00;;
635;SDS011;302;50.206;8.196;2023-08-06T06:04:12;1.10;;;1.00;;
635;SDS011;302;50.206;8.196;2023-08-06T06:06:37;1.10;;;0.93;;
635;SDS011;302;50.206;8.196;2023-08-06T06:09:02;1.00;;;0.80;;
635;SDS011;302;50.206;8.196;2023-08-06T06:11:27;1.10;;;0.90;;
635;SDS011;302;50.206;8.196;2023-08-06T06:13:52;1.00;;;0.90;;
635;SDS011;302;50.206;8.196;2023-08-06T06:16:18;0.90;;;0.80;;
635;SDS011;302;50.206;8.196;2023-08-06T06:18:43;1.00;;;0.90;;
635;SDS011;302;50.206;8.196;2023-08-06T06:21:09;1.10;;;0.85;;
635;SDS011;302;50.206;8.196;2023-08-06T06:23:34;1.02;;;0.93;;
635;SDS011;302;50.206;8.196;2023-08-06T06:25:59;0.95;;;0.80;;
635;SDS011;302;50.206;8.196;2023-08-06T06:28:24;1.00;;;0.90;;
635;SDS011;302;50.206;8.196;2023-08-06T06:30:51;0.90;;;0.80;;
635;SDS011;302;50.206;8.196;2023-08-06T06:33:16;0.98;;;0.68;;
635;SDS011;302;50.206;8.196;2023-08-06T06:35:41;0.90;;;0.70;;
635;SDS011;302;50.206;8.196;2023-08-06T06:38:06;1.00;;;0.80;;
635;SDS011;302;50.206;8.196;2023-08-06T06:40:31;0.90;;;0.60;;
635;SDS011;302;50.206;8.196;2023-08-06T06:42:57;0.90;;;0.80;;
635;SDS011;302;50.206;8.196;2023-08-06T06:45:23;1.00;;;0.90;;
635;SDS011;302;50.206;8.196;2023-08-06T06:47:48;0.90;;;0.63;;
635;SDS011;302;50.206;8.196;2023-08-06T06:50:13;0.90;;;0.60;;
635;SDS011;302;50.206;8.196;2023-08-06T06:52:38;0.90;;;0.70;;
635;SDS011;302;50.206;8.196;2023-08-06T06:55:03;0.90;;;0.60;;
635;SDS011;302;50.206;8.196;2023-08-06T06:57:29;0.90;;;0.60;;
635;SDS011;302;50.206;8.196;2023-08-06T06:59:54;0.90;;;0.50;;
635;SDS011;302;50.206;8.196;2023-08-06T07:02:19;0.90;;;0.70;;
635;SDS011;302;50.206;8.196;2023-08-06T07:04:44;1.00;;;0.50;;
635;SDS011;302;50.206;8.196;2023-08-06T07:07:09;0.90;;;0.60;;
635;SDS011;302;50.206;8.196;2023-08-06T07:09:35;0.80;;;0.50;;
635;SDS011;302;50.206;8.196;2023-08-06T07:12:00;1.00;;;0.80;;
635;SDS011;302;50.206;8.196;2023-08-06T07:14:26;1.40;;;0.70;;
635;SDS011;302;50.206;8.196;2023-08-06T07:16:51;1.43;;;0.70;;
635;SDS011;302;50.206;8.196;2023-08-06T07:19:16;1.10;;;0.90;;
635;SDS011;302;50.206;8.196;2023-08-06T07:21:42;0.83;;;0.60;;
635;SDS011;302;50.206;8.196;2023-08-06T07:24:07;1.27;;;0.80;;
635;SDS011;302;50.206;8.196;2023-08-06T07:26:32;1.33;;;0.70;;
635;SDS011;302;50.206;8.196;2023-08-06T07:28:57;1.97;;;0.73;;
635;SDS011;302;50.206;8.196;2023-08-06T07:31:22;1.02;;;0.70;;
635;SDS011;302;50.206;8.196;2023-08-06T07:33:47;1.00;;;0.88;;
635;SDS011;302;50.206;8.196;2023-08-06T07:36:13;0.90;;;0.70;;
635;SDS011;302;50.206;8.196;2023-08-06T07:38:39;1.33;;;0.87;;
635;SDS011;302;50.206;8.196;2023-08-06T07:41:04;1.20;;;0.70;;
635;SDS011;302;50.206;8.196;2023-08-06T07:43:30;0.90;;;0.67;;
635;SDS011;302;50.206;8.196;2023-08-06T07:45:57;1.00;;;0.70;;
635;SDS011;302;50.206;8.196;2023-08-06T07:48:22;1.35;;;0.80;;
635;SDS011;302;50.206;8.196;2023-08-06T07:50:50;1.00;;;0.70;;
635;SDS011;302;50.206;8.196;2023-08-06T07:53:18;1.20;;;0.80;;
635;SDS011;302;50.206;8.196;2023-08-06T07:55:43;1.10;;;0.80;;
635;SDS011;302;50.206;8.196;2023-08-06T07:58:08;1.05;;;0.85;;
635;SDS011;302;50.206;8.196;2023-08-06T08:00:33;1.00;;;0.80;;
635;SDS011;302;50.206;8.196;2023-08-06T08:02:58;1.00;;;0.70;;
635;SDS011;302;50.206;8.196;2023-08-06T08:05:23;1.50;;;1.03;;
635;SDS011;302;50.206;8.196;2023-08-06T08:07:49;1.20;;;0.90;;
635;SDS011;302;50.206;8.196;2023-08-06T08:10:14;1.00;;;0.80;;
635;SDS011;302;50.206;8.196;2023-08-06T08:12:39;1.10;;;0.88;;
635;SDS011;302;50.206;8.196;2023-08-06T08:15:04;1.00;;;0.70;;
635;SDS011;302;50.206;8.196;2023-08-06T08:17:29;1.10;;;0.90;;
635;SDS011;302;50.206;8.196;2023-08-06T08:19:55;1.73;;;0.73;;
635;SDS011;302;50.206;8.196;2023-08-06T08:22:20;2.03;;;1.20;;
635;SDS011;302;50.206;8.196;2023-08-06T08:24:45;2.30;;;0.90;;
635;SDS011;302;50.206;8.196;2023-08-06T08:27:10;0.90;;;0.80;;
635;SDS011;302;50.206;8.196;2023-08-06T08:29:35;1.00;;;0.80;;
635;SDS011;302;50.206;8.196;2023-08-06T08:32:00;1.00;;;0.70;;
635;SDS011;302;50.206;8.196;2023-08-06T08:34:26;1.00;;;0.80;;
635;SDS011;302;50.206;8.196;2023-08-06T08:36:51;1.20;;;0.82;;
635;SDS011;302;50.206;8.196;2023-08-06T08:39:16;1.00;;;0.83;;
635;SDS011;302;50.206;8.196;2023-08-06T08:41:41;1.20;;;0.82;;
635;SDS011;302;50.206;8.196;2023-08-06T08:44:07;1.00;;;0.70;;
635;SDS011;302;50.206;8.196;2023-08-06T08:46:33;1.30;;;0.93;;
635;SDS011;302;50.206;8.196;2023-08-06T08:49:00;1.00;;;0.80;;
635;SDS011;302;50.206;8.196;2023-08-06T08:51:27;1.00;;;0.80;;
635;SDS011;302;50.206;8.196;2023-08-06T08:53:52;0.90;;;0.70;;
635;SDS011;302;50.206;8.196;2023-08-06T08:56:18;1.00;;;0.80;;
635;SDS011;302;50.206;8.196;2023-08-06T08:58:44;0.90;;;0.80;;
635;SDS011;302;50.206;8.196;2023-08-06T09:01:09;0.93;;;0.70;;
635;SDS011;302;50.206;8.196;2023-08-06T09:03:35;1.00;;;0.77;;
635;SDS011;302;50.206;8.196;2023-08-06T09:06:01;1.00;;;0.82;;
635;SDS011;302;50.206;8.196;2023-08-06T09:08:27;0.90;;;0.73;;
635;SDS011;302;50.206;8.196;2023-08-06T09:10:54;1.00;;;0.70;;
635;SDS011;302;50.206;8.196;2023-08-06T09:13:21;1.00;;;0.70;;
635;SDS011;302;50.206;8.196;2023-08-06T09:15:48;1.00;;;0.85;;
635;SDS011;302;50.206;8.196;2023-08-06T09:18:14;0.90;;;0.60;;
635;SDS011;302;50.206;8.196;2023-08-06T09:20:40;1.00;;;0.90;;
635;SDS011;302;50.206;8.196;2023-08-06T09:23:08;1.40;;;1.10;;
635;SDS011;302;50.206;8.196;2023-08-06T09:25:36;0.93;;;0.75;;
635;SDS011;302;50.206;8.196;2023-08-06T09:28:02;0.90;;;0.70;;
635;SDS011;302;50.206;8.196;2023-08-06T09:30:30;1.37;;;0.90;;
635;SDS011;302;50.206;8.196;2023-08-06T09:32:56;1.00;;;0.70;;
635;SDS011;302;50.206;8.196;2023-08-06T09:35:21;1.00;;;0.70;;
635;SDS011;302;50.206;8.196;2023-08-06T09:37:46;1.03;;;0.80;;
635;SDS011;302;50.206;8.196;2023-08-06T09:40:23;1.00;;;0.60;;
635;SDS011;302;50.206;8.196;2023-08-06T09:42:49;0.80;;;0.50;;
635;SDS011;302;50.206;8.196;2023-08-06T09:45:15;1.00;;;0.60;;
635;SDS011;302;50.206;8.196;2023-08-06T09:47:41;0.90;;;0.60;;
635;SDS011;302;50.206;8.196;2023-08-06T09:50:06;0.88;;;0.50;;
635;SDS011;302;50.206;8.196;2023-08-06T09:52:39;1.00;;;0.75;;
635;SDS011;302;50.206;8.196;2023-08-06T09:55:04;0.90;;;0.60;;
635;SDS011;302;50.206;8.196;2023-08-06T09:57:30;0.90;;;0.60;;
635;SDS011;302;50.206;8.196;2023-08-06T09:59:55;1.00;;;0.60;;
635;SDS011;302;50.206;8.196;2023-08-06T10:02:20;0.90;;;0.40;;
635;SDS011;302;50.206;8.196;2023-08-06T10:04:49;1.50;;;1.27;;
635;SDS011;302;50.206;8.196;2023-08-06T10:07:14;1.00;;;0.67;;
635;SDS011;302;50.206;8.196;2023-08-06T10:09:40;2.20;;;1.80;;
635;SDS011;302;50.206;8.196;2023-08-06T10:12:05;2.07;;;1.87;;
635;SDS011;302;50.206;8.196;2023-08-06T10:14:32;0.93;;;0.70;;
635;SDS011;302;50.206;8.196;2023-08-06T10:16:58;1.40;;;1.30;;
635;SDS011;302;50.206;8.196;2023-08-06T10:19:24;1.00;;;0.90;;
635;SDS011;302;50.206;8.196;2023-08-06T10:22:09;0.90;;;0.60;;
635;SDS011;302;50.206;8.196;2023-08-06T10:24:54;1.00;;;0.88;;
635;SDS011;302;50.206;8.196;2023-08-06T10:27:20;1.10;;;0.70;;
635;SDS011;302;50.206;8.196;2023-08-06T10:29:45;1.98;;;1.17;;
635;SDS011;302;50.206;8.196;2023-08-06T10:32:10;2.08;;;0.75;;
635;SDS011;302;50.206;8.196;2023-08-06T10:37:23;1.08;;;0.70;;
635;SDS011;302;50.206;8.196;2023-08-06T10:39:49;1.00;;;0.73;;
635;SDS011;302;50.206;8.196;2023-08-06T10:42:28;1.00;;;0.70;;
635;SDS011;302;50.206;8.196;2023-08-06T10:45:13;1.15;;;0.75;;
635;SDS011;302;50.206;8.196;2023-08-06T10:47:40;1.15;;;0.80;;
635;SDS011;302;50.206;8.196;2023-08-06T10:50:06;1.00;;;0.63;;
635;SDS011;302;50.206;8.196;2023-08-06T10:52:31;1.05;;;0.70;;
635;SDS011;302;50.206;8.196;2023-08-06T10:54:56;1.03;;;0.50;;
635;SDS011;302;50.206;8.196;2023-08-06T10:57:22;1.20;;;0.60;;
635;SDS011;302;50.206;8.196;2023-08-06T10:59:47;0.90;;;0.60;;
635;SDS011;302;50.206;8.196;2023-08-06T11:02:12;1.00;;;0.67;;
635;SDS011;302;50.206;8.196;2023-08-06T11:04:37;1.00;;;0.60;;
635;SDS011;302;50.206;8.196;2023-08-06T11:07:03;1.40;;;1.17;;
635;SDS011;302;50.206;8.196;2023-08-06T11:09:28;1.20;;;1.10;;
635;SDS011;302;50.206;8.196;2023-08-06T11:11:53;2.85;;;1.38;;
635;SDS011;302;50.206;8.196;2023-08-06T11:14:18;1.77;;;1.10;;
635;SDS011;302;50.206;8.196;2023-08-06T11:16:44;1.40;;;1.30;;
635;SDS011;302;50.206;8.196;2023-08-06T11:19:09;1.40;;;1.20;;
635;SDS011;302;50.206;8.196;2023-08-06T11:21:34;1.63;;;1.53;;
635;SDS011;302;50.206;8.196;2023-08-06T11:24:00;2.10;;;1.27;;
635;SDS011;302;50.206;8.196;2023-08-06T11:26:25;1.00;;;0.90;;
635;SDS011;302;50.206;8.196;2023-08-06T11:28:52;1.30;;;1.00;;
635;SDS011;302;50.206;8.196;2023-08-06T11:31:20;1.10;;;0.90;;
635;SDS011;302;50.206;8.196;2023-08-06T11:33:45;1.00;;;0.80;;
635;SDS011;302;50.206;8.196;2023-08-06T11:36:11;1.00;;;0.70;;
635;SDS011;302;50.206;8.196;2023-08-06T11:38:36;1.00;;;0.73;;
635;SDS011;302;50.206;8.196;2023-08-06T11:41:01;0.90;;;0.70;;
635;SDS011;302;50.206;8.196;2023-08-06T11:43:26;0.97;;;0.70;;
635;SDS011;302;50.206;8.196;2023-08-06T11:45:55;1.00;;;0.80;;
635;SDS011;302;50.206;8.196;2023-08-06T11:48:20;1.10;;;0.83;;
635;SDS011;302;50.206;8.196;2023-08-06T11:50:45;1.00;;;0.83;;
635;SDS011;302;50.206;8.196;2023-08-06T11:53:14;1.53;;;0.70;;
635;SDS011;302;50.206;8.196;2023-08-06T11:55:39;0.90;;;0.70;;
635;SDS011;302;50.206;8.196;2023-08-06T11:58:05;1.00;;;0.70;;
635;SDS011;302;50.206;8.196;2023-08-06T12:00:30;0.90;;;0.70;;
635;SDS011;302;50.206;8.196;2023-08-06T12:02:55;1.17;;;0.80;;
635;SDS011;302;50.206;8.196;2023-08-06T12:05:21;1.07;;;0.60;;
635;SDS011;302;50.206;8.196;2023-08-06T12:07:51;1.00;;;0.80;;
635;SDS011;302;50.206;8.196;2023-08-06T12:10:16;1.10;;;0.80;;
635;SDS011;302;50.206;8.196;2023-08-06T12:12:42;1.03;;;0.93;;
635;SDS011;302;50.206;8.196;2023-08-06T12:15:07;1.30;;;1.00;;
635;SDS011;302;50.206;8.196;2023-08-06T12:17:33;1.65;;;1.10;;
635;SDS011;302;50.206;8.196;2023-08-06T12:19:58;1.13;;;0.90;;
635;SDS011;302;50.206;8.196;2023-08-06T12:22:23;2.43;;;0.90;;
635;SDS011;302;50.206;8.196;2023-08-06T12:24:49;1.10;;;1.00;;
635;SDS011;302;50.206;8.196;2023-08-06T12:27:14;1.20;;;0.80;;
635;SDS011;302;50.206;8.196;2023-08-06T12:29:41;1.80;;;1.00;;
635;SDS011;302;50.206;8.196;2023-08-06T12:32:07;1.10;;;0.90;;
635;SDS011;302;50.206;8.196;2023-08-06T12:34:33;1.37;;;1.00;;
635;SDS011;302;50.206;8.196;2023-08-06T12:36:58;1.30;;;1.17;;
635;SDS011;302;50.206;8.196;2023-08-06T12:39:23;1.00;;;0.80;;
635;SDS011;302;50.206;8.196;2023-08-06T12:41:48;1.10;;;0.90;;
635;SDS011;302;50.206;8.196;2023-08-06T12:44:14;1.93;;;1.00;;
635;SDS011;302;50.206;8.196;2023-08-06T12:46:39;1.13;;;1.03;;
635;SDS011;302;50.206;8.196;2023-08-06T12:49:04;2.63;;;0.95;;
635;SDS011;302;50.206;8.196;2023-08-06T12:51:30;1.47;;;0.97;;
635;SDS011;302;50.206;8.196;2023-08-06T12:53:55;1.05;;;0.90;;
635;SDS011;302;50.206;8.196;2023-08-06T12:56:21;1.42;;;1.00;;
635;SDS011;302;50.206;8.196;2023-08-06T12:58:46;1.10;;;0.80;;
635;SDS011;302;50.206;8.196;2023-08-06T13:01:11;1.63;;;0.90;;
635;SDS011;302;50.206;8.196;2023-08-06T13:03:36;1.50;;;0.90;;
635;SDS011;302;50.206;8.196;2023-08-06T13:06:01;3.23;;;1.00;;
635;SDS011;302;50.206;8.196;2023-08-06T13:08:27;2.45;;;1.00;;
635;SDS011;302;50.206;8.196;2023-08-06T13:10:52;1.50;;;0.90;;
635;SDS011;302;50.206;8.196;2023-08-06T13:13:17;1.10;;;1.00;;
635;SDS011;302;50.206;8.196;2023-08-06T13:15:42;1.70;;;1.02;;
635;SDS011;302;50.206;8.196;2023-08-06T13:18:07;1.10;;;0.90;;
635;SDS011;302;50.206;8.196;2023-08-06T13:20:33;1.10;;;1.00;;
635;SDS011;302;50.206;8.196;2023-08-06T13:22:58;1.30;;;1.00;;
635;SDS011;302;50.206;8.196;2023-08-06T13:25:23;1.30;;;1.20;;
635;SDS011;302;50.206;8.196;2023-08-06T13:27:48;1.13;;;1.03;;
635;SDS011;302;50.206;8.196;2023-08-06T13:30:13;1.20;;;0.80;;
635;SDS011;302;50.206;8.196;2023-08-06T13:32:39;1.40;;;0.95;;
635;SDS011;302;50.206;8.196;2023-08-06T13:35:04;1.10;;;0.83;;
635;SDS011;302;50.206;8.196;2023-08-06T13:37:29;1.23;;;0.90;;
635;SDS011;302;50.206;8.196;2023-08-06T13:39:54;1.10;;;0.90;;
635;SDS011;302;50.206;8.196;2023-08-06T13:42:20;1.13;;;1.03;;
635;SDS011;302;50.206;8.196;2023-08-06T13:44:45;1.00;;;0.90;;
635;SDS011;302;50.206;8.196;2023-08-06T13:47:10;1.45;;;1.20;;
635;SDS011;302;50.206;8.196;2023-08-06T13:49:35;2.10;;;0.95;;
635;SDS011;302;50.206;8.196;2023-08-06T13:52:00;1.10;;;0.93;;
635;SDS011;302;50.206;8.196;2023-08-06T13:54:25;1.80;;;1.10;;
635;SDS011;302;50.206;8.196;2023-08-06T13:56:50;1.10;;;1.00;;
635;SDS011;302;50.206;8.196;2023-08-06T13:59:17;1.88;;;1.20;;
635;SDS011;302;50.206;8.196;2023-08-06T14:01:44;1.15;;;0.93;;
635;SDS011;302;50.206;8.196;2023-08-06T14:04:09;1.00;;;0.90;;
635;SDS011;302;50.206;8.196;2023-08-06T14:06:35;1.40;;;1.10;;
635;SDS011;302;50.206;8.196;2023-08-06T14:09:00;1.40;;;0.93;;
635;SDS011;302;50.206;8.196;2023-08-06T14:11:25;1.10;;;1.00;;
635;SDS011;302;50.206;8.196;2023-08-06T14:13:50;1.00;;;0.90;;
635;SDS011;302;50.206;8.196;2023-08-06T14:16:15;1.50;;;0.90;;
635;SDS011;302;50.206;8.196;2023-08-06T14:18:41;0.90;;;0.70;;
635;SDS011;302;50.206;8.196;2023-08-06T14:21:06;0.90;;;0.80;;
635;SDS011;302;50.206;8.196;2023-08-06T14:23:31;0.90;;;0.80;;
635;SDS011;302;50.206;8.196;2023-08-06T14:25:56;1.20;;;0.70;;
635;SDS011;302;50.206;8.196;2023-08-06T14:28:22;1.00;;;0.80;;
635;SDS011;302;50.206;8.196;2023-08-06T14:30:47;4.82;;;1.88;;
635;SDS011;302;50.206;8.196;2023-08-06T14:33:12;1.43;;;0.70;;
635;SDS011;302;50.206;8.196;2023-08-06T14:35:37;1.47;;;0.80;;
635;SDS011;302;50.206;8.196;2023-08-06T14:38:02;1.20;;;1.00;;
635;SDS011;302;50.206;8.196;2023-08-06T14:40:28;1.10;;;0.70;;
635;SDS011;302;50.206;8.196;2023-08-06T14:42:58;1.10;;;0.63;;
635;SDS011;302;50.206;8.196;2023-08-06T14:45:23;0.90;;;0.70;;
635;SDS011;302;50.206;8.196;2023-08-06T14:47:48;1.00;;;0.80;;
635;SDS011;302;50.206;8.196;2023-08-06T14:50:13;1.00;;;0.70;;
635;SDS011;302;50.206;8.196;2023-08-06T14:52:39;0.90;;;0.70;;
635;SDS011;302;50.206;8.196;2023-08-06T14:55:04;1.52;;;0.60;;
635;SDS011;302;50.206;8.196;2023-08-06T14:57:29;1.00;;;0.70;;
635;SDS011;302;50.206;8.196;2023-08-06T14:59:55;1.00;;;0.70;;
635;SDS011;302;50.206;8.196;2023-08-06T15:02:20;1.10;;;0.90;;
635;SDS011;302;50.206;8.196;2023-08-06T15:04:45;1.70;;;1.10;;
635;SDS011;302;50.206;8.196;2023-08-06T15:07:10;1.20;;;1.10;;
635;SDS011;302;50.206;8.196;2023-08-06T15:09:36;1.17;;;1.05;;
635;SDS011;302;50.206;8.196;2023-08-06T15:12:01;1.73;;;1.30;;
635;SDS011;302;50.206;8.196;2023-08-06T15:14:26;1.77;;;1.10;;
635;SDS011;302;50.206;8.196;2023-08-06T15:16:51;1.10;;;0.90;;
635;SDS011;302;50.206;8.196;2023-08-06T15:19:16;2.00;;;1.10;;
635;SDS011;302;50.206;8.196;2023-08-06T15:21:41;2.60;;;1.00;;
635;SDS011;302;50.206;8.196;2023-08-06T15:24:08;1.25;;;1.15;;
635;SDS011;302;50.206;8.196;2023-08-06T15:26:33;2.03;;;1.10;;
635;SDS011;302;50.206;8.196;2023-08-06T15:28:59;1.10;;;0.90;;
635;SDS011;302;50.206;8.196;2023-08-06T15:31:25;1.20;;;1.10;;
635;SDS011;302;50.206;8.196;2023-08-06T15:34:00;1.77;;;1.10;;
635;SDS011;302;50.206;8.196;2023-08-06T15:36:25;1.50;;;1.20;;
635;SDS011;302;50.206;8.196;2023-08-06T15:38:50;1.95;;;1.85;;
635;SDS011;302;50.206;8.196;2023-08-06T15:41:15;1.20;;;1.10;;